sensor_id;sensor_type;location;lat;lon;timestamp;pressure;altitude;pressure_sealevel;temperature;humidity
10712;BME280;5407;51.234;6.804;2023-06-04T00:02:20;101518.16;;;25.22;27.43
10712;BME280;5407;51.234;6.804;2023-06-04T00:04:46;101518.59;;;25.21;27.86
10712;BME280;5407;51.234;6.804;2023-06-04T00:07:13;101515.56;;;25.12;27.83
10712;BME280;5407;51.234;6.804;2023-06-04T00:09:40;101516.19;;;25.23;27.62
10712;BME280;5407;51.234;6.804;2023-06-04T00:12:08;101514.88;;;25.04;27.84
10712;BME280;5407;51.234;6.804;2023-06-04T00:14:36;101513.91;;;25.18;27.56
10712;BME280;5407;51.234;6.804;2023-06-04T00:17:03;101513.84;;;25.21;28.09
10712;BME280;5407;51.234;6.804;2023-06-04T00:19:30;101510.72;;;25.19;27.51
10712;BME280;5407;51.234;6.804;2023-06-04T00:21:57;101511.59;;;25.13;27.76
10712;BME280;5407;51.234;6.804;2023-06-04T00:24:23;101506.84;;;25.13;28.03
10712;BME280;5407;51.234;6.804;2023-06-04T00:26:50;101514.41;;;25.09;27.80
10712;BME280;5407;51.234;6.804;2023-06-04T00:29:17;101512.16;;;25.01;27.60
10712;BME280;5407;51.234;6.804;2023-06-04T00:31:46;101513.38;;;25.00;27.83
10712;BME280;5407;51.234;6.804;2023-06-04T00:34:13;101516.97;;;24.97;28.03
10712;BME280;5407;51.234;6.804;2023-06-04T00:36:40;101511.03;;;24.98;27.96
10712;BME280;5407;51.234;6.804;2023-06-04T00:39:07;101515.78;;;24.98;27.90
10712;BME280;5407;51.234;6.804;2023-06-04T00:41:34;101516.63;;;24.95;27.97
10712;BME280;5407;51.234;6.804;2023-06-04T00:44:01;101517.78;;;24.97;28.18
10712;BME280;5407;51.234;6.804;2023-06-04T00:46:32;101511.16;;;24.91;27.91
10712;BME280;5407;51.234;6.804;2023-06-04T00:49:00;101515.25;;;24.83;28.24
10712;BME280;5407;51.234;6.804;2023-06-04T00:51:29;101513.94;;;24.91;28.00
10712;BME280;5407;51.234;6.804;2023-06-04T00:53:58;101510.47;;;24.84;27.92
10712;BME280;5407;51.234;6.804;2023-06-04T00:56:27;101511.81;;;24.99;28.25
10712;BME280;5407;51.234;6.804;2023-06-04T00:58:54;101507.72;;;24.84;28.06
10712;BME280;5407;51.234;6.804;2023-06-04T01:01:26;101504.56;;;24.85;27.96
10712;BME280;5407;51.234;6.804;2023-06-04T01:04:01;101511.47;;;24.70;28.45
10712;BME280;5407;51.234;6.804;2023-06-04T01:06:35;101513.75;;;24.75;28.14
10712;BME280;5407;51.234;6.804;2023-06-04T01:09:05;101513.13;;;24.64;28.36
10712;BME280;5407;51.234;6.804;2023-06-04T01:11:33;101516.25;;;24.66;28.39
10712;BME280;5407;51.234;6.804;2023-06-04T01:14:01;101511.56;;;24.63;28.47
10712;BME280;5407;51.234;6.804;2023-06-04T01:16:33;101517.09;;;24.63;28.40
10712;BME280;5407;51.234;6.804;2023-06-04T01:19:04;101520.28;;;24.62;28.30
10712;BME280;5407;51.234;6.804;2023-06-04T01:21:48;101515.22;;;24.57;28.18
10712;BME280;5407;51.234;6.804;2023-06-04T01:24:21;101518.03;;;24.53;28.44
10712;BME280;5407;51.234;6.804;2023-06-04T01:26:49;101514.47;;;24.53;28.28
10712;BME280;5407;51.234;6.804;2023-06-04T01:29:17;101519.59;;;24.54;28.62
10712;BME280;5407;51.234;6.804;2023-06-04T01:31:44;101519.59;;;24.54;28.58
10712;BME280;5407;51.234;6.804;2023-06-04T01:34:12;101504.69;;;24.48;28.67
10712;BME280;5407;51.234;6.804;2023-06-04T01:36:40;101515.03;;;24.41;28.59
10712;BME280;5407;51.234;6.804;2023-06-04T01:39:06;101515.03;;;24.41;28.54
10712;BME280;5407;51.234;6.804;2023-06-04T01:41:33;101513.34;;;24.47;28.62
10712;BME280;5407;51.234;6.804;2023-06-04T01:44:00;101518.94;;;24.43;28.46
10712;BME280;5407;51.234;6.804;2023-06-04T01:46:27;101516.41;;;24.56;28.71
10712;BME280;5407;51.234;6.804;2023-06-04T01:48:54;101518.56;;;24.41;28.46
10712;BME280;5407;51.234;6.804;2023-06-04T01:51:22;101520.50;;;24.44;28.56
10712;BME280;5407;51.234;6.804;2023-06-04T01:53:49;101517.78;;;24.41;28.58
10712;BME280;5407;51.234;6.804;2023-06-04T01:56:16;101517.41;;;24.39;28.79
10712;BME280;5407;51.234;6.804;2023-06-04T01:58:43;101507.59;;;24.34;28.81
10712;BME280;5407;51.234;6.804;2023-06-04T02:01:09;101518.28;;;24.32;28.73
10712;BME280;5407;51.234;6.804;2023-06-04T02:03:37;101522.16;;;24.38;28.55
10712;BME280;5407;51.234;6.804;2023-06-04T02:06:06;101516.66;;;24.38;28.77
10712;BME280;5407;51.234;6.804;2023-06-04T02:08:34;101512.22;;;24.44;28.85
10712;BME280;5407;51.234;6.804;2023-06-04T02:11:01;101516.19;;;24.43;28.54
10712;BME280;5407;51.234;6.804;2023-06-04T02:13:28;101514.69;;;24.35;28.57
10712;BME280;5407;51.234;6.804;2023-06-04T02:15:55;101505.69;;;24.31;28.90
10712;BME280;5407;51.234;6.804;2023-06-04T02:18:22;101512.13;;;24.21;28.71
10712;BME280;5407;51.234;6.804;2023-06-04T02:20:50;101513.22;;;24.27;29.00
10712;BME280;5407;51.234;6.804;2023-06-04T02:23:18;101509.69;;;24.27;28.72
10712;BME280;5407;51.234;6.804;2023-06-04T02:25:47;101515.25;;;24.23;28.85
10712;BME280;5407;51.234;6.804;2023-06-04T02:28:15;101512.75;;;24.32;28.83
10712;BME280;5407;51.234;6.804;2023-06-04T02:30:42;101515.34;;;24.16;28.99
10712;BME280;5407;51.234;6.804;2023-06-04T02:33:09;101512.94;;;24.18;28.78
10712;BME280;5407;51.234;6.804;2023-06-04T02:35:36;101512.56;;;24.16;28.95
10712;BME280;5407;51.234;6.804;2023-06-04T02:38:03;101508.22;;;24.19;28.72
10712;BME280;5407;51.234;6.804;2023-06-04T02:40:30;101509.47;;;24.14;28.81
10712;BME280;5407;51.234;6.804;2023-06-04T02:42:58;101509.81;;;24.16;28.71
10712;BME280;5407;51.234;6.804;2023-06-04T02:45:25;101510.53;;;24.24;28.87
10712;BME280;5407;51.234;6.804;2023-06-04T02:47:53;101508.22;;;24.19;28.80
10712;BME280;5407;51.234;6.804;2023-06-04T02:50:20;101510.66;;;24.13;28.78
10712;BME280;5407;51.234;6.804;2023-06-04T02:52:47;101510.66;;;24.13;28.86
10712;BME280;5407;51.234;6.804;2023-06-04T02:55:14;101511.22;;;23.98;28.94
10712;BME280;5407;51.234;6.804;2023-06-04T02:57:41;101508.94;;;23.93;29.15
10712;BME280;5407;51.234;6.804;2023-06-04T03:00:11;101510.78;;;24.03;29.10
10712;BME280;5407;51.234;6.804;2023-06-04T03:02:40;101514.78;;;23.98;29.12
10712;BME280;5407;51.234;6.804;2023-06-04T03:05:09;101516.28;;;24.03;29.21
10712;BME280;5407;51.234;6.804;2023-06-04T03:07:38;101515.47;;;24.06;28.95
10712;BME280;5407;51.234;6.804;2023-06-04T03:10:07;101520.75;;;23.93;29.08
10712;BME280;5407;51.234;6.804;2023-06-04T03:12:35;101521.06;;;23.99;29.18
10712;BME280;5407;51.234;6.804;2023-06-04T03:15:02;101517.09;;;24.03;29.41
10712;BME280;5407;51.234;6.804;2023-06-04T03:17:31;101524.19;;;24.01;29.41
10712;BME280;5407;51.234;6.804;2023-06-04T03:19:58;101521.50;;;23.97;29.43
10712;BME280;5407;51.234;6.804;2023-06-04T03:22:25;101525.81;;;23.98;29.69
10712;BME280;5407;51.234;6.804;2023-06-04T03:24:53;101519.59;;;23.87;29.65
10712;BME280;5407;51.234;6.804;2023-06-04T03:27:20;101522.34;;;23.91;29.66
10712;BME280;5407;51.234;6.804;2023-06-04T03:29:47;101525.00;;;23.98;29.51
10712;BME280;5407;51.234;6.804;2023-06-04T03:32:15;101522.69;;;23.96;29.48
10712;BME280;5407;51.234;6.804;2023-06-04T03:34:45;101525.94;;;23.84;29.56
10712;BME280;5407;51.234;6.804;2023-06-04T03:37:11;101529.84;;;23.90;29.38
10712;BME280;5407;51.234;6.804;2023-06-04T03:39:38;101522.75;;;23.89;29.60
10712;BME280;5407;51.234;6.804;2023-06-04T03:42:08;101526.63;;;23.95;29.51
10712;BME280;5407;51.234;6.804;2023-06-04T03:44:35;101528.22;;;23.93;29.30
10712;BME280;5407;51.234;6.804;2023-06-04T03:47:03;101528.34;;;23.82;29.51
10712;BME280;5407;51.234;6.804;2023-06-04T03:49:30;101528.34;;;23.82;29.50
10712;BME280;5407;51.234;6.804;2023-06-04T03:51:59;101527.13;;;23.83;29.60
10712;BME280;5407;51.234;6.804;2023-06-04T03:54:26;101525.13;;;23.87;29.71
10712;BME280;5407;51.234;6.804;2023-06-04T03:56:53;101524.44;;;23.76;29.78
10712;BME280;5407;51.234;6.804;2023-06-04T03:59:19;101521.69;;;23.76;29.74
10712;BME280;5407;51.234;6.804;2023-06-04T04:01:46;101522.88;;;23.75;29.64
10712;BME280;5407;51.234;6.804;2023-06-04T04:04:14;101523.56;;;23.86;29.59
10712;BME280;5407;51.234;6.804;2023-06-04T04:06:41;101529.50;;;23.85;29.57
10712;BME280;5407;51.234;6.804;2023-06-04T04:09:10;101527.56;;;23.78;29.65
10712;BME280;5407;51.234;6.804;2023-06-04T04:11:37;101526.00;;;23.77;29.71
10712;BME280;5407;51.234;6.804;2023-06-04T04:14:04;101520.56;;;23.71;29.82
10712;BME280;5407;51.234;6.804;2023-06-04T04:16:32;101525.22;;;23.77;29.79
10712;BME280;5407;51.234;6.804;2023-06-04T04:18:59;101519.06;;;23.66;29.93
10712;BME280;5407;51.234;6.804;2023-06-04T04:21:26;101524.50;;;23.70;29.71
10712;BME280;5407;51.234;6.804;2023-06-04T04:23:52;101513.56;;;23.63;29.93
10712;BME280;5407;51.234;6.804;2023-06-04T04:26:21;101520.19;;;23.69;29.79
10712;BME280;5407;51.234;6.804;2023-06-04T04:28:52;101530.09;;;23.63;30.05
10712;BME280;5407;51.234;6.804;2023-06-04T04:31:24;101521.38;;;23.71;29.85
10712;BME280;5407;51.234;6.804;2023-06-04T04:33:51;101520.63;;;23.67;29.82
10712;BME280;5407;51.234;6.804;2023-06-04T04:36:18;101523.78;;;23.66;29.91
10712;BME280;5407;51.234;6.804;2023-06-04T04:38:47;101525.41;;;23.60;29.94
10712;BME280;5407;51.234;6.804;2023-06-04T04:41:23;101526.00;;;23.77;29.72
10712;BME280;5407;51.234;6.804;2023-06-04T04:43:52;101524.44;;;23.76;29.67
10712;BME280;5407;51.234;6.804;2023-06-04T04:46:25;101528.47;;;23.69;29.74
10712;BME280;5407;51.234;6.804;2023-06-04T04:48:52;101524.50;;;23.73;29.74
10712;BME280;5407;51.234;6.804;2023-06-04T04:51:19;101522.22;;;23.61;29.92
10712;BME280;5407;51.234;6.804;2023-06-04T04:53:46;101530.75;;;23.73;29.87
10712;BME280;5407;51.234;6.804;2023-06-04T04:56:13;101527.72;;;23.65;29.84
10712;BME280;5407;51.234;6.804;2023-06-04T04:58:46;101523.69;;;23.73;29.58
10712;BME280;5407;51.234;6.804;2023-06-04T05:01:13;101517.53;;;23.62;30.05
10712;BME280;5407;51.234;6.804;2023-06-04T05:03:41;101515.06;;;23.71;29.81
10712;BME280;5407;51.234;6.804;2023-06-04T05:06:11;101516.63;;;23.72;29.77
10712;BME280;5407;51.234;6.804;2023-06-04T05:08:38;101514.28;;;23.70;29.63
10712;BME280;5407;51.234;6.804;2023-06-04T05:11:05;101526.22;;;23.57;29.98
10712;BME280;5407;51.234;6.804;2023-06-04T05:13:33;101519.91;;;23.60;30.00
10712;BME280;5407;51.234;6.804;2023-06-04T05:16:04;101528.47;;;23.69;29.78
10712;BME280;5407;51.234;6.804;2023-06-04T05:18:33;101533.53;;;23.73;29.82
10712;BME280;5407;51.234;6.804;2023-06-04T05:21:02;101529.94;;;23.76;29.71
10712;BME280;5407;51.234;6.804;2023-06-04T05:23:33;101527.16;;;23.80;29.82
10712;BME280;5407;51.234;6.804;2023-06-04T05:26:01;101526.78;;;23.81;29.73
10712;BME280;5407;51.234;6.804;2023-06-04T05:28:28;101529.84;;;23.90;29.65
10712;BME280;5407;51.234;6.804;2023-06-04T05:30:55;101538.16;;;23.83;29.70
10712;BME280;5407;51.234;6.804;2023-06-04T05:33:26;101541.66;;;23.87;29.78
10712;BME280;5407;51.234;6.804;2023-06-04T05:35:58;101538.13;;;23.87;29.70
10712;BME280;5407;51.234;6.804;2023-06-04T05:38:28;101536.91;;;23.91;29.80
10712;BME280;5407;51.234;6.804;2023-06-04T05:40:57;101535.34;;;23.90;29.80
10712;BME280;5407;51.234;6.804;2023-06-04T05:43:28;101545.56;;;23.93;29.94
10712;BME280;5407;51.234;6.804;2023-06-04T05:45:55;101547.88;;;23.98;29.84
10712;BME280;5407;51.234;6.804;2023-06-04T05:48:22;101546.28;;;23.97;29.67
10712;BME280;5407;51.234;6.804;2023-06-04T05:50:51;101545.38;;;24.07;29.71
10712;BME280;5407;51.234;6.804;2023-06-04T05:53:18;101546.97;;;24.05;29.42
10712;BME280;5407;51.234;6.804;2023-06-04T05:55:46;101539.97;;;24.00;29.61
10712;BME280;5407;51.234;6.804;2023-06-04T05:58:13;101542.72;;;24.00;29.88
10712;BME280;5407;51.234;6.804;2023-06-04T06:00:40;101541.47;;;24.05;29.82
10712;BME280;5407;51.234;6.804;2023-06-04T06:03:07;101550.81;;;24.14;29.86
10712;BME280;5407;51.234;6.804;2023-06-04T06:05:41;101546.22;;;24.04;29.77
10712;BME280;5407;51.234;6.804;2023-06-04T06:08:09;101554.03;;;24.09;29.87
10712;BME280;5407;51.234;6.804;2023-06-04T06:10:36;101556.75;;;24.13;29.65
10712;BME280;5407;51.234;6.804;2023-06-04T06:13:03;101559.44;;;24.20;29.72
10712;BME280;5407;51.234;6.804;2023-06-04T06:15:30;101561.00;;;24.17;29.82
10712;BME280;5407;51.234;6.804;2023-06-04T06:17:57;101558.59;;;24.23;29.87
10712;BME280;5407;51.234;6.804;2023-06-04T06:20:24;101559.28;;;24.30;29.70
10712;BME280;5407;51.234;6.804;2023-06-04T06:22:52;101563.94;;;24.37;29.42
10712;BME280;5407;51.234;6.804;2023-06-04T06:25:22;101566.28;;;24.38;29.92
10712;BME280;5407;51.234;6.804;2023-06-04T06:27:55;101564.63;;;24.44;29.46
10712;BME280;5407;51.234;6.804;2023-06-04T06:30:23;101566.19;;;24.45;29.63
10712;BME280;5407;51.234;6.804;2023-06-04T06:32:50;101570.25;;;24.37;29.32
10712;BME280;5407;51.234;6.804;2023-06-04T06:35:17;101570.09;;;24.48;29.56
10712;BME280;5407;51.234;6.804;2023-06-04T06:37:43;101576.44;;;24.45;29.48
10712;BME280;5407;51.234;6.804;2023-06-04T06:40:11;101576.81;;;24.47;29.58
10712;BME280;5407;51.234;6.804;2023-06-04T06:42:39;101581.13;;;24.48;29.45
10712;BME280;5407;51.234;6.804;2023-06-04T06:45:06;101579.84;;;24.59;29.60
10712;BME280;5407;51.234;6.804;2023-06-04T06:47:33;101586.53;;;24.58;29.18
10712;BME280;5407;51.234;6.804;2023-06-04T06:50:01;101585.34;;;24.59;29.53
10712;BME280;5407;51.234;6.804;2023-06-04T06:52:27;101577.94;;;24.53;29.30
10712;BME280;5407;51.234;6.804;2023-06-04T06:54:54;101586.19;;;24.56;29.57
10712;BME280;5407;51.234;6.804;2023-06-04T06:57:21;101582.91;;;24.65;29.32
10712;BME280;5407;51.234;6.804;2023-06-04T06:59:49;101589.63;;;24.64;29.19
10712;BME280;5407;51.234;6.804;2023-06-04T07:02:19;101587.59;;;24.68;29.06
10712;BME280;5407;51.234;6.804;2023-06-04T07:04:46;101590.66;;;24.73;29.36
10712;BME280;5407;51.234;6.804;2023-06-04T07:07:13;101591.00;;;24.79;29.34
10712;BME280;5407;51.234;6.804;2023-06-04T07:09:39;101593.31;;;24.80;29.18
10712;BME280;5407;51.234;6.804;2023-06-04T07:12:06;101602.00;;;24.82;29.06
10712;BME280;5407;51.234;6.804;2023-06-04T07:14:33;101594.81;;;24.88;28.79
10712;BME280;5407;51.234;6.804;2023-06-04T07:17:01;101591.16;;;24.95;28.84
10712;BME280;5407;51.234;6.804;2023-06-04T07:19:28;101588.47;;;24.91;29.07
10712;BME280;5407;51.234;6.804;2023-06-04T07:21:55;101594.38;;;24.90;29.37
10712;BME280;5407;51.234;6.804;2023-06-04T07:24:22;101587.63;;;24.94;29.21
10712;BME280;5407;51.234;6.804;2023-06-04T07:26:49;101590.38;;;24.94;29.19
10712;BME280;5407;51.234;6.804;2023-06-04T07:29:16;101594.28;;;24.97;29.35
10712;BME280;5407;51.234;6.804;2023-06-04T07:31:43;101593.81;;;25.02;29.26
10712;BME280;5407;51.234;6.804;2023-06-04T07:34:11;101599.69;;;25.04;29.50
10712;BME280;5407;51.234;6.804;2023-06-04T07:36:38;101592.25;;;25.01;29.38
10712;BME280;5407;51.234;6.804;2023-06-04T07:39:05;101596.63;;;24.98;29.31
10712;BME280;5407;51.234;6.804;2023-06-04T07:41:32;101598.44;;;25.08;28.94
10712;BME280;5407;51.234;6.804;2023-06-04T07:43:59;101599.19;;;25.12;29.14
10712;BME280;5407;51.234;6.804;2023-06-04T07:46:25;101595.56;;;25.19;28.90
10712;BME280;5407;51.234;6.804;2023-06-04T07:48:52;101594.50;;;25.09;29.54
10712;BME280;5407;51.234;6.804;2023-06-04T07:51:20;101595.22;;;25.13;29.46
10712;BME280;5407;51.234;6.804;2023-06-04T07:53:48;101598.34;;;25.15;29.67
10712;BME280;5407;51.234;6.804;2023-06-04T07:56:15;101590.53;;;25.10;29.56
10712;BME280;5407;51.234;6.804;2023-06-04T07:58:43;101599.19;;;25.12;29.71
10712;BME280;5407;51.234;6.804;2023-06-04T08:01:10;101592.88;;;25.12;29.58
10712;BME280;5407;51.234;6.804;2023-06-04T08:03:37;101602.31;;;25.14;29.49
10712;BME280;5407;51.234;6.804;2023-06-04T08:06:06;101596.06;;;25.10;30.08
10712;BME280;5407;51.234;6.804;2023-06-04T08:08:34;101596.13;;;25.07;30.24
10712;BME280;5407;51.234;6.804;2023-06-04T08:11:00;101585.81;;;25.11;29.75
10712;BME280;5407;51.234;6.804;2023-06-04T08:13:28;101595.28;;;25.10;29.83
10712;BME280;5407;51.234;6.804;2023-06-04T08:15:54;101591.31;;;25.11;30.18
10712;BME280;5407;51.234;6.804;2023-06-04T08:18:21;101596.06;;;25.10;30.13
10712;BME280;5407;51.234;6.804;2023-06-04T08:20:48;101600.75;;;25.13;30.16
10712;BME280;5407;51.234;6.804;2023-06-04T08:23:15;101599.53;;;25.14;30.03
10712;BME280;5407;51.234;6.804;2023-06-04T08:25:43;101601.53;;;25.14;30.03
10712;BME280;5407;51.234;6.804;2023-06-04T08:28:10;101598.34;;;25.15;29.92
10712;BME280;5407;51.234;6.804;2023-06-04T08:30:37;101602.31;;;25.14;30.24
10712;BME280;5407;51.234;6.804;2023-06-04T08:33:04;101604.66;;;25.16;30.47
10712;BME280;5407;51.234;6.804;2023-06-04T08:35:30;101610.94;;;25.16;30.17
10712;BME280;5407;51.234;6.804;2023-06-04T08:37:57;101609.38;;;25.15;30.25
10712;BME280;5407;51.234;6.804;2023-06-04T08:40:25;101607.75;;;25.21;30.60
10712;BME280;5407;51.234;6.804;2023-06-04T08:42:55;101598.25;;;25.22;29.86
10712;BME280;5407;51.234;6.804;2023-06-04T08:45:23;101606.91;;;25.24;30.57
10712;BME280;5407;51.234;6.804;2023-06-04T08:47:51;101605.31;;;25.27;30.56
10712;BME280;5407;51.234;6.804;2023-06-04T08:50:24;101613.91;;;25.32;31.67
10712;BME280;5407;51.234;6.804;2023-06-04T08:52:52;101607.91;;;25.37;30.85
10712;BME280;5407;51.234;6.804;2023-06-04T08:55:20;101615.41;;;25.36;30.51
10712;BME280;5407;51.234;6.804;2023-06-04T08:57:49;101610.66;;;25.37;29.84
10712;BME280;5407;51.234;6.804;2023-06-04T09:00:19;101620.09;;;25.39;30.12
10712;BME280;5407;51.234;6.804;2023-06-04T09:02:47;101608.63;;;25.41;30.04
10712;BME280;5407;51.234;6.804;2023-06-04T09:05:19;101610.94;;;25.42;29.99
10712;BME280;5407;51.234;6.804;2023-06-04T09:07:46;101618.41;;;25.45;30.28
10712;BME280;5407;51.234;6.804;2023-06-04T09:10:18;101616.78;;;25.48;30.35
10712;BME280;5407;51.234;6.804;2023-06-04T09:12:47;101614.41;;;25.50;30.78
10712;BME280;5407;51.234;6.804;2023-06-04T09:15:15;101615.94;;;25.51;30.38
10712;BME280;5407;51.234;6.804;2023-06-04T09:17:44;101610.44;;;25.51;30.34
10712;BME280;5407;51.234;6.804;2023-06-04T09:20:18;101614.75;;;25.52;30.50
10712;BME280;5407;51.234;6.804;2023-06-04T09:22:45;101617.88;;;25.54;30.75
10712;BME280;5407;51.234;6.804;2023-06-04T09:25:20;101620.63;;;25.54;31.04
10712;BME280;5407;51.234;6.804;2023-06-04T09:27:47;101619.78;;;25.57;30.93
10712;BME280;5407;51.234;6.804;2023-06-04T09:30:14;101611.88;;;25.59;30.74
10712;BME280;5407;51.234;6.804;2023-06-04T09:32:41;101615.84;;;25.58;31.05
10712;BME280;5407;51.234;6.804;2023-06-04T09:35:11;101616.19;;;25.60;30.98
10712;BME280;5407;51.234;6.804;2023-06-04T09:37:39;101612.22;;;25.61;31.34
10712;BME280;5407;51.234;6.804;2023-06-04T09:40:07;101617.75;;;25.61;30.83
10712;BME280;5407;51.234;6.804;2023-06-04T09:42:44;101603.09;;;25.64;30.86
10712;BME280;5407;51.234;6.804;2023-06-04T09:45:11;101603.88;;;25.64;31.16
10712;BME280;5407;51.234;6.804;2023-06-04T09:47:40;101600.69;;;25.66;31.54
10712;BME280;5407;51.234;6.804;2023-06-04T09:50:10;101602.25;;;25.67;31.34
10712;BME280;5407;51.234;6.804;2023-06-04T09:52:37;101603.81;;;25.68;31.65
10712;BME280;5407;51.234;6.804;2023-06-04T09:55:15;101609.34;;;25.68;31.24
10712;BME280;5407;51.234;6.804;2023-06-04T09:57:45;101608.13;;;25.69;31.52
10712;BME280;5407;51.234;6.804;2023-06-04T10:00:14;101614.03;;;25.71;31.49
10712;BME280;5407;51.234;6.804;2023-06-04T10:02:44;101609.28;;;25.71;31.51
10712;BME280;5407;51.234;6.804;2023-06-04T10:05:13;101608.09;;;25.72;31.31
10712;BME280;5407;51.234;6.804;2023-06-04T10:07:42;101611.63;;;25.73;31.19
10712;BME280;5407;51.234;6.804;2023-06-04T10:10:13;101610.41;;;25.74;31.25
10712;BME280;5407;51.234;6.804;2023-06-04T10:12:42;101605.28;;;25.76;31.21
10712;BME280;5407;51.234;6.804;2023-06-04T10:15:11;101609.94;;;25.79;31.48
10712;BME280;5407;51.234;6.804;2023-06-04T10:17:39;101606.75;;;25.80;30.90
10712;BME280;5407;51.234;6.804;2023-06-04T10:20:07;101604.78;;;25.81;31.54
10712;BME280;5407;51.234;6.804;2023-06-04T10:22:37;101613.06;;;25.81;31.51
10712;BME280;5407;51.234;6.804;2023-06-04T10:25:06;101609.09;;;25.82;31.68
10712;BME280;5407;51.234;6.804;2023-06-04T10:27:35;101613.47;;;25.83;31.71
10712;BME280;5407;51.234;6.804;2023-06-04T10:30:04;101605.53;;;25.85;31.62
10712;BME280;5407;51.234;6.804;2023-06-04T10:32:31;101594.03;;;25.86;31.62
10712;BME280;5407;51.234;6.804;2023-06-04T10:34:58;101601.91;;;25.88;31.94
10712;BME280;5407;51.234;6.804;2023-06-04T10:37:30;101595.19;;;25.89;31.60
10712;BME280;5407;51.234;6.804;2023-06-04T10:39:58;101602.28;;;25.90;31.95
10712;BME280;5407;51.234;6.804;2023-06-04T10:42:25;101595.53;;;25.91;31.85
10712;BME280;5407;51.234;6.804;2023-06-04T10:44:54;101593.53;;;25.91;31.75
10712;BME280;5407;51.234;6.804;2023-06-04T10:47:22;101600.22;;;25.94;32.01
10712;BME280;5407;51.234;6.804;2023-06-04T10:49:49;101600.56;;;25.96;31.82
10712;BME280;5407;51.234;6.804;2023-06-04T10:52:17;101592.28;;;25.96;31.69
10712;BME280;5407;51.234;6.804;2023-06-04T10:54:45;101601.34;;;25.96;31.54
10712;BME280;5407;51.234;6.804;2023-06-04T10:57:16;101601.28;;;26.00;31.57
10712;BME280;5407;51.234;6.804;2023-06-04T10:59:53;101589.81;;;26.01;31.87
10712;BME280;5407;51.234;6.804;2023-06-04T11:02:20;101590.59;;;26.02;31.36
10712;BME280;5407;51.234;6.804;2023-06-04T11:04:57;101583.84;;;26.03;30.96
10712;BME280;5407;51.234;6.804;2023-06-04T11:07:25;101590.09;;;26.07;31.47
10712;BME280;5407;51.234;6.804;2023-06-04T11:09:52;101598.75;;;26.09;31.49
10712;BME280;5407;51.234;6.804;2023-06-04T11:12:20;101588.03;;;26.11;31.43
10712;BME280;5407;51.234;6.804;2023-06-04T11:14:54;101591.16;;;26.13;31.57
10712;BME280;5407;51.234;6.804;2023-06-04T11:17:21;101588.75;;;26.15;31.66
10712;BME280;5407;51.234;6.804;2023-06-04T11:19:48;101593.41;;;26.18;31.56
10712;BME280;5407;51.234;6.804;2023-06-04T11:22:15;101582.34;;;26.18;31.51
10712;BME280;5407;51.234;6.804;2023-06-04T11:24:42;101582.72;;;26.20;31.44
10712;BME280;5407;51.234;6.804;2023-06-04T11:27:09;101580.31;;;26.22;31.52
10712;BME280;5407;51.234;6.804;2023-06-04T11:29:37;101581.09;;;26.22;31.78
10712;BME280;5407;51.234;6.804;2023-06-04T11:32:05;101582.25;;;26.25;31.59
10712;BME280;5407;51.234;6.804;2023-06-04T11:34:32;101573.16;;;26.24;31.36
10712;BME280;5407;51.234;6.804;2023-06-04T11:37:07;101575.91;;;26.24;31.01
10712;BME280;5407;51.234;6.804;2023-06-04T11:39:35;101574.28;;;26.27;30.45
10712;BME280;5407;51.234;6.804;2023-06-04T11:42:04;101573.44;;;26.30;30.63
10712;BME280;5407;51.234;6.804;2023-06-04T11:44:33;101577.31;;;26.32;30.59
10712;BME280;5407;51.234;6.804;2023-06-04T11:47:04;101570.94;;;26.35;30.31
10712;BME280;5407;51.234;6.804;2023-06-04T11:49:34;101572.06;;;26.38;30.41
10712;BME280;5407;51.234;6.804;2023-06-04T11:52:02;101569.22;;;26.41;30.42
10712;BME280;5407;51.234;6.804;2023-06-04T11:54:29;101568.38;;;26.44;30.33
10712;BME280;5407;51.234;6.804;2023-06-04T11:56:56;101560.03;;;26.48;30.57
10712;BME280;5407;51.234;6.804;2023-06-04T11:59:23;101563.50;;;26.52;30.59
10712;BME280;5407;51.234;6.804;2023-06-04T12:01:50;101570.19;;;26.54;30.79
10712;BME280;5407;51.234;6.804;2023-06-04T12:04:20;101570.88;;;26.58;30.70
10712;BME280;5407;51.234;6.804;2023-06-04T12:06:51;101566.47;;;26.61;30.68
10712;BME280;5407;51.234;6.804;2023-06-04T12:09:23;101565.59;;;26.64;30.42
10712;BME280;5407;51.234;6.804;2023-06-04T12:11:50;101561.97;;;26.67;30.67
10712;BME280;5407;51.234;6.804;2023-06-04T12:14:17;101560.34;;;26.69;30.58
10712;BME280;5407;51.234;6.804;2023-06-04T12:16:54;101571.78;;;26.71;30.52
10712;BME280;5407;51.234;6.804;2023-06-04T12:19:23;101555.09;;;26.75;30.65
10712;BME280;5407;51.234;6.804;2023-06-04T12:22:01;101559.78;;;26.78;30.58
10712;BME280;5407;51.234;6.804;2023-06-04T12:24:28;101567.63;;;26.79;30.50
10712;BME280;5407;51.234;6.804;2023-06-04T12:27:02;101554.94;;;26.82;30.77
10712;BME280;5407;51.234;6.804;2023-06-04T12:29:29;101559.59;;;26.85;30.61
10712;BME280;5407;51.234;6.804;2023-06-04T12:32:02;101561.16;;;26.86;30.66
10712;BME280;5407;51.234;6.804;2023-06-04T12:34:31;101558.75;;;26.88;30.57
10712;BME280;5407;51.234;6.804;2023-06-04T12:36:58;101551.19;;;26.88;30.56
10712;BME280;5407;51.234;6.804;2023-06-04T12:39:24;101551.53;;;26.90;30.63
10712;BME280;5407;51.234;6.804;2023-06-04T12:41:51;101555.44;;;26.92;30.59
10712;BME280;5407;51.234;6.804;2023-06-04T12:44:18;101557.00;;;26.93;30.45
10712;BME280;5407;51.234;6.804;2023-06-04T12:46:46;101546.28;;;26.95;30.61
10712;BME280;5407;51.234;6.804;2023-06-04T12:49:13;101545.88;;;26.97;30.33
10712;BME280;5407;51.234;6.804;2023-06-04T12:51:41;101542.66;;;26.98;30.42
10712;BME280;5407;51.234;6.804;2023-06-04T12:54:09;101539.47;;;27.00;30.46
10712;BME280;5407;51.234;6.804;2023-06-04T12:56:36;101538.25;;;27.01;30.33
10712;BME280;5407;51.234;6.804;2023-06-04T12:59:03;101547.66;;;27.03;30.26
10712;BME280;5407;51.234;6.804;2023-06-04T13:01:30;101548.00;;;27.05;30.38
10712;BME280;5407;51.234;6.804;2023-06-04T13:03:57;101548.00;;;27.05;30.34
10712;BME280;5407;51.234;6.804;2023-06-04T13:06:24;101551.13;;;27.07;30.18